createdAt,value
2019-03-30T00:03:31.017Z,6.40
2019-03-30T00:08:34.417Z,6.30
2019-03-30T00:13:37.505Z,6.77
2019-03-30T00:18:41.516Z,5.87
2019-03-30T00:23:44.881Z,5.90
2019-03-30T00:28:47.949Z,6.07
2019-03-30T00:33:51.034Z,5.93
2019-03-30T00:38:54.439Z,6.03
2019-03-30T00:43:57.831Z,6.33
2019-03-30T00:49:01.547Z,6.80
2019-03-30T00:54:05.175Z,6.63
2019-03-30T00:59:08.864Z,6.50
2019-03-30T01:04:12.262Z,7.00
2019-03-30T01:09:16.009Z,6.83
2019-03-30T01:14:19.431Z,6.57
2019-03-30T01:19:22.818Z,7.20
2019-03-30T01:24:25.920Z,6.70
2019-03-30T01:29:29.044Z,7.43
2019-03-30T01:34:32.118Z,7.27
2019-03-30T01:39:35.774Z,7.40
2019-03-30T01:44:39.090Z,7.23
2019-03-30T01:49:44.834Z,7.20
2019-03-30T01:54:48.702Z,7.20
2019-03-30T01:59:52.823Z,7.00
2019-03-30T02:04:56.586Z,7.07
2019-03-30T02:10:02.578Z,7.03
2019-03-30T02:15:06.150Z,7.60
2019-03-30T02:20:11.027Z,7.70
2019-03-30T02:25:14.427Z,7.40
2019-03-30T02:30:17.898Z,6.97
2019-03-30T02:35:21.344Z,7.40
2019-03-30T02:40:25.054Z,7.03
2019-03-30T02:45:28.777Z,7.90
2019-03-30T02:50:47.670Z,7.33
2019-03-30T02:55:36.960Z,7.70
2019-03-30T03:00:40.689Z,7.62
2019-03-30T03:05:43.819Z,7.77
2019-03-30T03:10:46.884Z,7.47
2019-03-30T03:15:49.957Z,7.60
2019-03-30T03:21:06.610Z,7.47
2019-03-30T03:25:57.847Z,8.30
2019-03-30T03:31:00.964Z,7.90
2019-03-30T03:36:04.141Z,7.90
2019-03-30T03:41:07.972Z,8.30
2019-03-30T03:46:11.323Z,8.57
2019-03-30T03:51:25.826Z,7.80
2019-03-30T03:56:21.736Z,8.27
2019-03-30T04:01:27.188Z,8.33
2019-03-30T04:06:31.858Z,8.13
2019-03-30T04:11:37.779Z,8.40
2019-03-30T04:16:41.216Z,8.17
2019-03-30T04:21:45.005Z,8.43
2019-03-30T04:26:48.262Z,8.20
2019-03-30T04:31:51.341Z,8.50
2019-03-30T04:36:55.100Z,8.87
2019-03-30T04:41:58.889Z,8.67
2019-03-30T04:47:02.283Z,9.00
2019-03-30T04:52:05.354Z,9.47
2019-03-30T04:57:08.739Z,10.27
2019-03-30T05:02:12.455Z,10.10
2019-03-30T05:07:15.864Z,9.90
2019-03-30T05:12:19.279Z,9.53
2019-03-30T05:17:22.687Z,9.20
2019-03-30T05:22:25.769Z,10.03
2019-03-30T05:27:29.181Z,10.13
2019-03-30T05:32:32.253Z,9.70
2019-03-30T05:37:35.652Z,9.90
2019-03-30T05:42:38.731Z,10.00
2019-03-30T05:47:42.451Z,9.57
2019-03-30T05:52:45.858Z,9.27
2019-03-30T05:57:49.501Z,9.60
2019-03-30T06:02:52.906Z,8.97
2019-03-30T06:07:56.227Z,8.43
2019-03-30T06:12:59.318Z,7.70
2019-03-30T06:18:02.717Z,8.23
2019-03-30T06:23:05.784Z,8.23
2019-03-30T06:28:09.461Z,8.10
2019-03-30T06:33:12.545Z,8.10
2019-03-30T06:38:15.954Z,9.15
2019-03-30T06:43:20.336Z,8.23
2019-03-30T06:48:24.046Z,7.37
2019-03-30T06:53:27.371Z,7.97
2019-03-30T06:58:31.086Z,8.27
2019-03-30T07:03:34.404Z,8.00
2019-03-30T07:08:38.560Z,8.23
2019-03-30T07:13:43.912Z,8.27
2019-03-30T07:18:46.654Z,8.37
2019-03-30T07:23:50.063Z,7.67
2019-03-30T07:28:53.722Z,8.27
2019-03-30T07:33:56.795Z,7.67
2019-03-30T07:38:59.861Z,7.93
2019-03-30T07:44:04.523Z,8.57
2019-03-30T07:49:07.884Z,8.40
2019-03-30T07:54:12.298Z,8.50
2019-03-30T07:59:15.386Z,8.07
2019-03-30T08:04:18.787Z,8.20
2019-03-30T08:09:22.187Z,8.80
2019-03-30T08:14:25.594Z,8.85
2019-03-30T08:19:28.994Z,7.73
2019-03-30T08:24:32.065Z,8.13
2019-03-30T08:29:35.723Z,8.43
2019-03-30T08:34:39.447Z,9.03
2019-03-30T08:39:42.893Z,8.73
2019-03-30T08:44:46.578Z,8.10
2019-03-30T08:49:49.657Z,8.20
2019-03-30T08:54:52.797Z,7.60
2019-03-30T08:59:56.162Z,7.20
2019-03-30T09:04:59.254Z,7.30
2019-03-30T09:10:03.045Z,7.87
2019-03-30T09:15:08.174Z,7.27
2019-03-30T09:20:11.883Z,7.03
2019-03-30T09:25:15.190Z,6.50
2019-03-30T09:30:21.095Z,6.90
2019-03-30T09:35:24.495Z,7.13
2019-03-30T09:40:27.595Z,6.63
2019-03-30T09:45:31.007Z,7.63
2019-03-30T09:50:34.483Z,7.40
2019-03-30T09:55:37.897Z,6.23
2019-03-30T10:00:40.984Z,7.80
2019-03-30T10:05:44.308Z,7.27
2019-03-30T10:10:47.706Z,6.73
2019-03-30T10:15:51.143Z,6.90
2019-03-30T10:20:54.564Z,6.80
2019-03-30T10:25:57.863Z,6.70
2019-03-30T10:31:00.939Z,6.70
2019-03-30T10:36:05.128Z,6.87
2019-03-30T10:41:08.199Z,7.13
2019-03-30T10:46:11.615Z,6.40
2019-03-30T10:51:14.692Z,6.37
2019-03-30T10:56:17.766Z,6.17
2019-03-30T11:01:21.443Z,6.30
2019-03-30T11:06:24.850Z,4.97
2019-03-30T11:11:28.246Z,5.03
2019-03-30T11:16:31.649Z,5.37
2019-03-30T11:21:35.292Z,5.07
2019-03-30T11:26:39.565Z,4.83
2019-03-30T11:31:42.872Z,5.27
2019-03-30T11:36:46.581Z,4.20
2019-03-30T11:41:49.654Z,4.80
2019-03-30T11:46:53.294Z,5.03
2019-03-30T11:51:56.697Z,5.10
2019-03-30T11:57:00.405Z,4.73
2019-03-30T12:02:03.991Z,4.20
2019-03-30T12:07:07.405Z,4.57
2019-03-30T12:12:10.481Z,5.10
2019-03-30T12:17:13.873Z,4.67
2019-03-30T12:22:17.616Z,4.50
2019-03-30T12:27:21.027Z,4.50
2019-03-30T12:32:24.342Z,4.67
2019-03-30T12:37:27.660Z,4.57
2019-03-30T12:42:31.299Z,4.53
2019-03-30T12:47:36.239Z,4.50
2019-03-30T12:52:39.787Z,4.20
2019-03-30T12:57:43.440Z,4.93
2019-03-30T13:02:46.523Z,5.30
2019-03-30T13:07:50.243Z,4.00
2019-03-30T13:12:53.367Z,5.30
2019-03-30T13:17:56.772Z,4.67
2019-03-30T13:22:59.848Z,5.00
2019-03-30T13:28:03.260Z,4.80
2019-03-30T13:33:07.043Z,4.73
2019-03-30T13:38:10.120Z,4.50
2019-03-30T13:43:13.521Z,4.63
2019-03-30T13:48:16.587Z,4.33
2019-03-30T13:53:20.325Z,4.37
2019-03-30T13:58:23.392Z,4.27
2019-03-30T14:03:26.752Z,5.00
2019-03-30T14:08:30.159Z,4.40
2019-03-30T14:13:33.229Z,4.57
2019-03-30T14:18:36.351Z,4.20
2019-03-30T14:23:43.220Z,4.43
2019-03-30T14:28:44.774Z,4.77
2019-03-30T14:33:49.003Z,5.30
2019-03-30T14:38:52.364Z,5.37
2019-03-30T14:43:55.709Z,5.67
2019-03-30T14:48:58.776Z,5.10
2019-03-30T14:54:02.424Z,4.90
2019-03-30T14:59:10.379Z,5.37
2019-03-30T15:04:10.934Z,5.57
2019-03-30T15:09:14.416Z,6.53
2019-03-30T15:14:18.049Z,5.70
2019-03-30T15:19:21.440Z,5.77
2019-03-30T15:24:24.565Z,5.57
2019-03-30T15:29:27.647Z,6.30
2019-03-30T15:34:30.721Z,6.30
2019-03-30T15:39:34.028Z,6.13
2019-03-30T15:44:37.478Z,6.40
2019-03-30T15:49:40.593Z,5.77
2019-03-30T15:54:44.013Z,5.60
2019-03-30T15:59:50.598Z,5.60
2019-03-30T16:04:54.173Z,5.60
2019-03-30T16:09:57.804Z,6.20
2019-03-30T16:15:01.844Z,6.37
2019-03-30T16:20:08.822Z,6.53
2019-03-30T16:25:12.407Z,6.83
2019-03-30T16:30:16.772Z,7.50
2019-03-30T16:35:21.051Z,9.07
2019-03-30T16:40:24.675Z,9.50
2019-03-30T16:45:28.311Z,9.60
2019-03-30T16:50:31.737Z,10.07
2019-03-30T16:55:35.371Z,10.00
2019-03-30T17:00:38.775Z,9.90
2019-03-30T17:05:42.209Z,9.47
2019-03-30T17:10:45.868Z,10.23
2019-03-30T17:15:49.270Z,10.13
2019-03-30T17:20:53.515Z,10.27
2019-03-30T17:25:56.590Z,9.20
2019-03-30T17:31:00.231Z,9.27
2019-03-30T17:36:03.880Z,9.60
2019-03-30T17:41:07.282Z,10.17
2019-03-30T17:46:10.671Z,10.15
2019-03-30T17:51:13.747Z,11.07
2019-03-30T17:56:17.229Z,11.77
2019-03-30T18:01:20.873Z,11.00
2019-03-30T18:06:24.296Z,12.67
2019-03-30T18:11:27.590Z,11.43
2019-03-30T18:16:31.247Z,11.13
2019-03-30T18:21:37.639Z,12.45
2019-03-30T18:26:39.372Z,11.23
2019-03-30T18:31:42.434Z,10.07
2019-03-30T18:36:46.774Z,10.40
2019-03-30T18:41:50.139Z,9.60
2019-03-30T18:46:53.210Z,8.87
2019-03-30T18:51:56.562Z,9.03
2019-03-30T18:56:59.639Z,10.60
2019-03-30T19:02:03.091Z,10.00
2019-03-30T19:07:06.152Z,8.87
2019-03-30T19:12:09.795Z,8.20
2019-03-30T19:17:12.872Z,10.70
2019-03-30T19:22:16.528Z,10.70
2019-03-30T19:27:20.248Z,9.87
2019-03-30T19:32:23.647Z,9.67
2019-03-30T19:37:26.722Z,9.77
2019-03-30T19:42:30.127Z,10.30
2019-03-30T19:47:33.509Z,10.23
2019-03-30T19:52:40.001Z,12.50
2019-03-30T19:57:42.387Z,13.80
2019-03-30T20:02:45.810Z,9.90
2019-03-30T20:07:49.210Z,9.97
2019-03-30T20:12:52.282Z,9.80
2019-03-30T20:17:55.353Z,9.23
2019-03-30T20:22:58.750Z,9.17
2019-03-30T20:28:02.056Z,8.70
2019-03-30T20:33:05.463Z,8.33
2019-03-30T20:38:08.786Z,8.37
2019-03-30T20:43:11.851Z,8.17
2019-03-30T20:48:15.247Z,8.40
2019-03-30T20:53:18.659Z,8.27
2019-03-30T20:58:22.322Z,8.93
2019-03-30T21:03:25.615Z,9.07
2019-03-30T21:08:29.263Z,9.13
2019-03-30T21:13:32.667Z,8.80
2019-03-30T21:18:36.067Z,10.37
2019-03-30T21:23:39.830Z,9.77
2019-03-30T21:28:43.223Z,10.63
2019-03-30T21:33:46.947Z,10.57
2019-03-30T21:38:50.666Z,11.27
2019-03-30T21:43:54.395Z,12.27
2019-03-30T21:48:57.466Z,12.80
2019-03-30T21:54:00.874Z,13.80
2019-03-30T21:59:03.946Z,14.50
2019-03-30T22:04:07.646Z,14.00
2019-03-30T22:09:11.178Z,14.23
2019-03-30T22:14:14.631Z,14.30
2019-03-30T22:19:18.022Z,13.40
2019-03-30T22:24:21.335Z,14.30
2019-03-30T22:29:24.740Z,13.87
2019-03-30T22:34:27.815Z,14.43
2019-03-30T22:39:31.547Z,15.00
2019-03-30T22:44:34.873Z,14.47
2019-03-30T22:49:38.291Z,14.97
2019-03-30T22:54:41.743Z,14.30
2019-03-30T22:59:45.133Z,14.47
2019-03-30T23:04:48.234Z,14.60
2019-03-30T23:09:51.935Z,14.60
2019-03-30T23:14:55.653Z,14.60
2019-03-30T23:19:58.983Z,14.80
2019-03-30T23:25:02.695Z,14.70
2019-03-30T23:30:06.841Z,15.10
2019-03-30T23:35:10.313Z,15.20
2019-03-30T23:40:13.958Z,15.40
2019-03-30T23:45:17.694Z,14.57
2019-03-30T23:50:21.137Z,14.87
2019-03-30T23:55:24.524Z,15.83
